sensor_id;sensor_type;location;lat;lon;timestamp;P1;durP1;ratioP1;P2;durP2;ratioP2
52838;SDS011;39219;53.678;9.856;2022-09-17T00:01:24;19.48;;;3.17;;
52838;SDS011;39219;53.678;9.856;2022-09-17T00:03:52;20.17;;;3.85;;
52838;SDS011;39219;53.678;9.856;2022-09-17T00:06:20;18.63;;;3.63;;
52838;SDS011;39219;53.678;9.856;2022-09-17T00:08:48;19.05;;;3.72;;
52838;SDS011;39219;53.678;9.856;2022-09-17T00:11:16;17.05;;;3.60;;
52838;SDS011;39219;53.678;9.856;2022-09-17T00:13:45;20.63;;;3.80;;
52838;SDS011;39219;53.678;9.856;2022-09-17T00:16:20;24.70;;;4.22;;
52838;SDS011;39219;53.678;9.856;2022-09-17T00:18:48;18.25;;;3.17;;
52838;SDS011;39219;53.678;9.856;2022-09-17T00:21:15;21.50;;;4.18;;
52838;SDS011;39219;53.678;9.856;2022-09-17T00:23:43;22.42;;;3.53;;
52838;SDS011;39219;53.678;9.856;2022-09-17T00:26:10;23.80;;;4.25;;
52838;SDS011;39219;53.678;9.856;2022-09-17T00:28:37;20.52;;;3.67;;
52838;SDS011;39219;53.678;9.856;2022-09-17T00:31:05;21.75;;;4.22;;
52838;SDS011;39219;53.678;9.856;2022-09-17T00:33:34;16.98;;;3.35;;
52838;SDS011;39219;53.678;9.856;2022-09-17T00:36:02;17.58;;;3.63;;
52838;SDS011;39219;53.678;9.856;2022-09-17T00:38:29;17.50;;;3.20;;
52838;SDS011;39219;53.678;9.856;2022-09-17T00:40:56;16.73;;;3.33;;
52838;SDS011;39219;53.678;9.856;2022-09-17T00:43:33;18.70;;;3.20;;
52838;SDS011;39219;53.678;9.856;2022-09-17T00:46:03;20.45;;;3.38;;
52838;SDS011;39219;53.678;9.856;2022-09-17T00:48:32;18.92;;;3.13;;
52838;SDS011;39219;53.678;9.856;2022-09-17T00:50:59;15.55;;;3.20;;
52838;SDS011;39219;53.678;9.856;2022-09-17T00:53:27;21.02;;;3.92;;
52838;SDS011;39219;53.678;9.856;2022-09-17T00:55:56;17.15;;;3.50;;
52838;SDS011;39219;53.678;9.856;2022-09-17T00:58:26;21.38;;;3.30;;
52838;SDS011;39219;53.678;9.856;2022-09-17T01:00:54;17.10;;;2.83;;
52838;SDS011;39219;53.678;9.856;2022-09-17T01:03:20;15.68;;;3.20;;
52838;SDS011;39219;53.678;9.856;2022-09-17T01:05:48;19.25;;;3.17;;
52838;SDS011;39219;53.678;9.856;2022-09-17T01:08:24;20.98;;;3.40;;
52838;SDS011;39219;53.678;9.856;2022-09-17T01:11:05;16.85;;;3.13;;
52838;SDS011;39219;53.678;9.856;2022-09-17T01:13:44;17.58;;;3.28;;
52838;SDS011;39219;53.678;9.856;2022-09-17T01:16:23;18.38;;;2.97;;
52838;SDS011;39219;53.678;9.856;2022-09-17T01:18:59;22.00;;;3.65;;
52838;SDS011;39219;53.678;9.856;2022-09-17T01:21:47;16.05;;;2.92;;
52838;SDS011;39219;53.678;9.856;2022-09-17T01:24:38;16.52;;;3.03;;
52838;SDS011;39219;53.678;9.856;2022-09-17T01:30:28;18.20;;;2.95;;
52838;SDS011;39219;53.678;9.856;2022-09-17T01:33:18;13.90;;;2.33;;
52838;SDS011;39219;53.678;9.856;2022-09-17T01:35:55;15.85;;;2.80;;
52838;SDS011;39219;53.678;9.856;2022-09-17T01:38:31;15.43;;;2.53;;
52838;SDS011;39219;53.678;9.856;2022-09-17T01:41:04;15.35;;;2.83;;
52838;SDS011;39219;53.678;9.856;2022-09-17T01:43:37;18.38;;;3.55;;
52838;SDS011;39219;53.678;9.856;2022-09-17T01:48:43;11.05;;;2.50;;
52838;SDS011;39219;53.678;9.856;2022-09-17T01:51:12;15.23;;;3.05;;
52838;SDS011;39219;53.678;9.856;2022-09-17T01:53:42;14.57;;;2.30;;
52838;SDS011;39219;53.678;9.856;2022-09-17T01:56:14;12.18;;;2.67;;
52838;SDS011;39219;53.678;9.856;2022-09-17T01:58:44;14.10;;;2.70;;
52838;SDS011;39219;53.678;9.856;2022-09-17T02:01:18;18.08;;;3.30;;
52838;SDS011;39219;53.678;9.856;2022-09-17T02:03:48;14.10;;;2.85;;
52838;SDS011;39219;53.678;9.856;2022-09-17T02:06:20;13.52;;;3.10;;
52838;SDS011;39219;53.678;9.856;2022-09-17T02:08:52;14.95;;;2.92;;
52838;SDS011;39219;53.678;9.856;2022-09-17T02:11:21;12.82;;;3.03;;
52838;SDS011;39219;53.678;9.856;2022-09-17T02:13:50;12.73;;;2.47;;
52838;SDS011;39219;53.678;9.856;2022-09-17T02:16:22;14.98;;;2.63;;
52838;SDS011;39219;53.678;9.856;2022-09-17T02:18:53;12.70;;;2.20;;
52838;SDS011;39219;53.678;9.856;2022-09-17T02:21:27;14.15;;;2.78;;
52838;SDS011;39219;53.678;9.856;2022-09-17T02:24:02;12.30;;;2.53;;
52838;SDS011;39219;53.678;9.856;2022-09-17T02:26:33;16.08;;;2.65;;
52838;SDS011;39219;53.678;9.856;2022-09-17T02:29:08;17.52;;;3.05;;
52838;SDS011;39219;53.678;9.856;2022-09-17T02:31:42;18.08;;;3.38;;
52838;SDS011;39219;53.678;9.856;2022-09-17T02:34:09;16.83;;;2.90;;
52838;SDS011;39219;53.678;9.856;2022-09-17T02:36:36;14.90;;;2.55;;
52838;SDS011;39219;53.678;9.856;2022-09-17T02:39:03;18.83;;;2.78;;
52838;SDS011;39219;53.678;9.856;2022-09-17T02:41:34;16.33;;;3.20;;
52838;SDS011;39219;53.678;9.856;2022-09-17T02:44:07;15.65;;;3.13;;
52838;SDS011;39219;53.678;9.856;2022-09-17T02:46:49;14.40;;;2.63;;
52838;SDS011;39219;53.678;9.856;2022-09-17T02:49:36;14.77;;;3.25;;
52838;SDS011;39219;53.678;9.856;2022-09-17T02:52:20;15.50;;;3.08;;
52838;SDS011;39219;53.678;9.856;2022-09-17T02:54:59;13.70;;;3.00;;
52838;SDS011;39219;53.678;9.856;2022-09-17T02:57:33;18.77;;;3.22;;
52838;SDS011;39219;53.678;9.856;2022-09-17T03:00:06;12.93;;;2.85;;
52838;SDS011;39219;53.678;9.856;2022-09-17T03:02:40;18.60;;;2.83;;
52838;SDS011;39219;53.678;9.856;2022-09-17T03:05:11;13.27;;;2.92;;
52838;SDS011;39219;53.678;9.856;2022-09-17T03:07:39;21.70;;;3.00;;
52838;SDS011;39219;53.678;9.856;2022-09-17T03:10:06;15.65;;;3.00;;
52838;SDS011;39219;53.678;9.856;2022-09-17T03:12:33;17.83;;;3.22;;
52838;SDS011;39219;53.678;9.856;2022-09-17T03:15:00;13.25;;;2.83;;
52838;SDS011;39219;53.678;9.856;2022-09-17T03:17:27;16.77;;;2.85;;
52838;SDS011;39219;53.678;9.856;2022-09-17T03:19:55;17.40;;;2.63;;
52838;SDS011;39219;53.678;9.856;2022-09-17T03:22:21;20.60;;;3.05;;
52838;SDS011;39219;53.678;9.856;2022-09-17T03:24:48;15.93;;;2.88;;
52838;SDS011;39219;53.678;9.856;2022-09-17T03:27:15;13.32;;;2.40;;
52838;SDS011;39219;53.678;9.856;2022-09-17T03:29:41;11.18;;;2.40;;
52838;SDS011;39219;53.678;9.856;2022-09-17T03:32:08;15.93;;;3.05;;
52838;SDS011;39219;53.678;9.856;2022-09-17T03:34:34;17.67;;;2.75;;
52838;SDS011;39219;53.678;9.856;2022-09-17T03:37:02;13.43;;;2.47;;
52838;SDS011;39219;53.678;9.856;2022-09-17T03:39:29;13.90;;;2.90;;
52838;SDS011;39219;53.678;9.856;2022-09-17T03:41:55;16.70;;;2.88;;
52838;SDS011;39219;53.678;9.856;2022-09-17T03:44:22;12.27;;;2.67;;
52838;SDS011;39219;53.678;9.856;2022-09-17T03:46:48;15.05;;;2.80;;
52838;SDS011;39219;53.678;9.856;2022-09-17T03:49:15;14.48;;;2.67;;
52838;SDS011;39219;53.678;9.856;2022-09-17T03:51:42;16.55;;;3.00;;
52838;SDS011;39219;53.678;9.856;2022-09-17T03:54:10;15.02;;;2.70;;
52838;SDS011;39219;53.678;9.856;2022-09-17T03:56:37;13.70;;;2.65;;
52838;SDS011;39219;53.678;9.856;2022-09-17T03:59:03;16.88;;;2.97;;
52838;SDS011;39219;53.678;9.856;2022-09-17T04:01:30;15.70;;;2.72;;
52838;SDS011;39219;53.678;9.856;2022-09-17T04:03:56;16.70;;;2.78;;
52838;SDS011;39219;53.678;9.856;2022-09-17T04:06:23;13.57;;;2.65;;
52838;SDS011;39219;53.678;9.856;2022-09-17T04:08:49;12.60;;;2.60;;
52838;SDS011;39219;53.678;9.856;2022-09-17T04:11:17;11.48;;;2.50;;
52838;SDS011;39219;53.678;9.856;2022-09-17T04:13:44;13.23;;;2.88;;
52838;SDS011;39219;53.678;9.856;2022-09-17T04:16:10;13.15;;;3.13;;
52838;SDS011;39219;53.678;9.856;2022-09-17T04:18:37;14.18;;;2.35;;
52838;SDS011;39219;53.678;9.856;2022-09-17T04:21:03;13.65;;;2.78;;
52838;SDS011;39219;53.678;9.856;2022-09-17T04:23:30;10.68;;;2.50;;
52838;SDS011;39219;53.678;9.856;2022-09-17T04:25:56;13.80;;;3.28;;
52838;SDS011;39219;53.678;9.856;2022-09-17T04:28:24;13.57;;;2.90;;
52838;SDS011;39219;53.678;9.856;2022-09-17T04:30:51;13.52;;;3.05;;
52838;SDS011;39219;53.678;9.856;2022-09-17T04:33:17;17.98;;;2.90;;
52838;SDS011;39219;53.678;9.856;2022-09-17T04:35:44;14.65;;;2.95;;
52838;SDS011;39219;53.678;9.856;2022-09-17T04:38:10;18.92;;;2.92;;
52838;SDS011;39219;53.678;9.856;2022-09-17T04:40:38;17.90;;;3.20;;
52838;SDS011;39219;53.678;9.856;2022-09-17T04:43:06;14.57;;;3.08;;
52838;SDS011;39219;53.678;9.856;2022-09-17T04:45:35;14.50;;;2.90;;
52838;SDS011;39219;53.678;9.856;2022-09-17T04:48:02;11.70;;;2.20;;
52838;SDS011;39219;53.678;9.856;2022-09-17T04:50:29;13.40;;;2.67;;
52838;SDS011;39219;53.678;9.856;2022-09-17T04:52:56;17.67;;;3.05;;
52838;SDS011;39219;53.678;9.856;2022-09-17T04:55:23;15.50;;;2.85;;
52838;SDS011;39219;53.678;9.856;2022-09-17T04:57:51;14.02;;;2.40;;
52838;SDS011;39219;53.678;9.856;2022-09-17T05:00:18;15.27;;;2.80;;
52838;SDS011;39219;53.678;9.856;2022-09-17T05:02:48;14.40;;;2.97;;
52838;SDS011;39219;53.678;9.856;2022-09-17T05:05:16;14.32;;;2.80;;
52838;SDS011;39219;53.678;9.856;2022-09-17T05:07:43;12.38;;;2.97;;
52838;SDS011;39219;53.678;9.856;2022-09-17T05:10:10;13.05;;;2.53;;
52838;SDS011;39219;53.678;9.856;2022-09-17T05:12:38;12.77;;;2.90;;
52838;SDS011;39219;53.678;9.856;2022-09-17T05:15:05;18.88;;;3.15;;
52838;SDS011;39219;53.678;9.856;2022-09-17T05:17:32;14.27;;;3.08;;
52838;SDS011;39219;53.678;9.856;2022-09-17T05:20:00;16.20;;;2.78;;
52838;SDS011;39219;53.678;9.856;2022-09-17T05:22:27;14.05;;;2.58;;
52838;SDS011;39219;53.678;9.856;2022-09-17T05:24:53;14.40;;;2.88;;
52838;SDS011;39219;53.678;9.856;2022-09-17T05:27:20;14.95;;;2.92;;
52838;SDS011;39219;53.678;9.856;2022-09-17T05:29:46;16.58;;;2.58;;
52838;SDS011;39219;53.678;9.856;2022-09-17T05:32:13;15.75;;;2.80;;
52838;SDS011;39219;53.678;9.856;2022-09-17T05:34:39;13.45;;;2.83;;
52838;SDS011;39219;53.678;9.856;2022-09-17T05:37:09;14.93;;;2.28;;
52838;SDS011;39219;53.678;9.856;2022-09-17T05:39:36;14.27;;;2.55;;
52838;SDS011;39219;53.678;9.856;2022-09-17T05:42:02;14.43;;;2.75;;
52838;SDS011;39219;53.678;9.856;2022-09-17T05:44:29;13.77;;;2.80;;
52838;SDS011;39219;53.678;9.856;2022-09-17T05:46:55;16.80;;;2.58;;
52838;SDS011;39219;53.678;9.856;2022-09-17T05:49:22;15.38;;;2.70;;
52838;SDS011;39219;53.678;9.856;2022-09-17T05:51:49;13.23;;;2.60;;
52838;SDS011;39219;53.678;9.856;2022-09-17T05:54:17;15.88;;;2.88;;
52838;SDS011;39219;53.678;9.856;2022-09-17T05:56:43;11.85;;;2.30;;
52838;SDS011;39219;53.678;9.856;2022-09-17T05:59:10;15.82;;;2.63;;
52838;SDS011;39219;53.678;9.856;2022-09-17T06:01:36;16.20;;;2.63;;
52838;SDS011;39219;53.678;9.856;2022-09-17T06:04:03;12.10;;;2.42;;
52838;SDS011;39219;53.678;9.856;2022-09-17T06:06:29;14.93;;;2.38;;
52838;SDS011;39219;53.678;9.856;2022-09-17T06:08:57;17.45;;;2.45;;
52838;SDS011;39219;53.678;9.856;2022-09-17T06:11:25;12.10;;;2.30;;
52838;SDS011;39219;53.678;9.856;2022-09-17T06:13:52;13.90;;;2.72;;
52838;SDS011;39219;53.678;9.856;2022-09-17T06:16:19;16.80;;;2.30;;
52838;SDS011;39219;53.678;9.856;2022-09-17T06:18:46;9.70;;;2.15;;
52838;SDS011;39219;53.678;9.856;2022-09-17T06:21:14;15.30;;;2.00;;
52838;SDS011;39219;53.678;9.856;2022-09-17T06:23:41;12.35;;;2.28;;
52838;SDS011;39219;53.678;9.856;2022-09-17T06:26:08;15.77;;;2.88;;
52838;SDS011;39219;53.678;9.856;2022-09-17T06:28:36;13.73;;;2.72;;
52838;SDS011;39219;53.678;9.856;2022-09-17T06:31:03;12.70;;;2.83;;
52838;SDS011;39219;53.678;9.856;2022-09-17T06:33:31;13.63;;;2.70;;
52838;SDS011;39219;53.678;9.856;2022-09-17T06:36:00;13.52;;;2.40;;
52838;SDS011;39219;53.678;9.856;2022-09-17T06:38:29;14.18;;;2.53;;
52838;SDS011;39219;53.678;9.856;2022-09-17T06:40:57;14.02;;;2.55;;
52838;SDS011;39219;53.678;9.856;2022-09-17T06:43:24;12.75;;;2.65;;
52838;SDS011;39219;53.678;9.856;2022-09-17T06:45:52;7.50;;;1.60;;
52838;SDS011;39219;53.678;9.856;2022-09-17T06:48:19;12.05;;;1.92;;
52838;SDS011;39219;53.678;9.856;2022-09-17T06:50:47;9.40;;;1.70;;
52838;SDS011;39219;53.678;9.856;2022-09-17T06:53:13;5.93;;;1.40;;
52838;SDS011;39219;53.678;9.856;2022-09-17T06:55:40;6.65;;;1.27;;
52838;SDS011;39219;53.678;9.856;2022-09-17T06:58:07;8.13;;;1.48;;
52838;SDS011;39219;53.678;9.856;2022-09-17T07:00:34;5.82;;;1.20;;
52838;SDS011;39219;53.678;9.856;2022-09-17T07:03:02;4.50;;;1.15;;
52838;SDS011;39219;53.678;9.856;2022-09-17T07:05:28;5.95;;;1.05;;
52838;SDS011;39219;53.678;9.856;2022-09-17T07:07:56;6.75;;;1.40;;
52838;SDS011;39219;53.678;9.856;2022-09-17T07:10:25;7.03;;;1.30;;
52838;SDS011;39219;53.678;9.856;2022-09-17T07:12:52;7.97;;;1.65;;
52838;SDS011;39219;53.678;9.856;2022-09-17T07:15:19;5.45;;;1.40;;
52838;SDS011;39219;53.678;9.856;2022-09-17T07:17:46;5.80;;;1.23;;
52838;SDS011;39219;53.678;9.856;2022-09-17T07:20:13;5.55;;;1.20;;
52838;SDS011;39219;53.678;9.856;2022-09-17T07:22:40;5.85;;;1.05;;
52838;SDS011;39219;53.678;9.856;2022-09-17T07:25:07;4.22;;;1.00;;
52838;SDS011;39219;53.678;9.856;2022-09-17T07:27:34;5.57;;;1.33;;
52838;SDS011;39219;53.678;9.856;2022-09-17T07:30:00;4.50;;;1.33;;
52838;SDS011;39219;53.678;9.856;2022-09-17T07:32:27;4.35;;;1.20;;
52838;SDS011;39219;53.678;9.856;2022-09-17T07:34:54;5.00;;;1.20;;
52838;SDS011;39219;53.678;9.856;2022-09-17T07:37:22;4.35;;;1.13;;
52838;SDS011;39219;53.678;9.856;2022-09-17T07:39:49;6.88;;;1.35;;
52838;SDS011;39219;53.678;9.856;2022-09-17T07:42:15;5.55;;;1.08;;
52838;SDS011;39219;53.678;9.856;2022-09-17T07:44:41;4.65;;;1.13;;
52838;SDS011;39219;53.678;9.856;2022-09-17T07:47:08;4.55;;;1.20;;
52838;SDS011;39219;53.678;9.856;2022-09-17T07:49:34;4.82;;;1.00;;
52838;SDS011;39219;53.678;9.856;2022-09-17T07:52:01;4.03;;;1.00;;
52838;SDS011;39219;53.678;9.856;2022-09-17T07:54:31;4.15;;;1.23;;
52838;SDS011;39219;53.678;9.856;2022-09-17T07:56:58;4.93;;;1.08;;
52838;SDS011;39219;53.678;9.856;2022-09-17T07:59:24;4.32;;;1.20;;
52838;SDS011;39219;53.678;9.856;2022-09-17T08:01:51;3.92;;;1.13;;
52838;SDS011;39219;53.678;9.856;2022-09-17T08:04:17;6.57;;;1.13;;
52838;SDS011;39219;53.678;9.856;2022-09-17T08:06:44;6.47;;;1.30;;
52838;SDS011;39219;53.678;9.856;2022-09-17T08:09:12;5.40;;;1.45;;
52838;SDS011;39219;53.678;9.856;2022-09-17T08:11:41;5.32;;;1.10;;
52838;SDS011;39219;53.678;9.856;2022-09-17T08:14:08;4.70;;;1.02;;
52838;SDS011;39219;53.678;9.856;2022-09-17T08:16:36;6.28;;;1.70;;
52838;SDS011;39219;53.678;9.856;2022-09-17T08:19:04;7.35;;;1.42;;
52838;SDS011;39219;53.678;9.856;2022-09-17T08:21:30;4.50;;;1.17;;
52838;SDS011;39219;53.678;9.856;2022-09-17T08:23:57;5.03;;;1.10;;
52838;SDS011;39219;53.678;9.856;2022-09-17T08:26:23;4.85;;;1.25;;
52838;SDS011;39219;53.678;9.856;2022-09-17T08:28:52;5.70;;;1.42;;
52838;SDS011;39219;53.678;9.856;2022-09-17T08:31:21;6.07;;;1.40;;
52838;SDS011;39219;53.678;9.856;2022-09-17T08:33:49;4.28;;;1.15;;
52838;SDS011;39219;53.678;9.856;2022-09-17T08:36:16;8.90;;;1.42;;
52838;SDS011;39219;53.678;9.856;2022-09-17T08:38:45;8.40;;;1.65;;
52838;SDS011;39219;53.678;9.856;2022-09-17T08:41:17;10.35;;;1.95;;
52838;SDS011;39219;53.678;9.856;2022-09-17T08:43:54;7.68;;;1.67;;
52838;SDS011;39219;53.678;9.856;2022-09-17T08:46:27;8.68;;;1.52;;
52838;SDS011;39219;53.678;9.856;2022-09-17T08:49:00;7.60;;;1.25;;
52838;SDS011;39219;53.678;9.856;2022-09-17T08:51:35;4.90;;;1.30;;
52838;SDS011;39219;53.678;9.856;2022-09-17T08:54:08;9.18;;;1.30;;
52838;SDS011;39219;53.678;9.856;2022-09-17T08:56:42;8.00;;;1.23;;
52838;SDS011;39219;53.678;9.856;2022-09-17T08:59:18;8.20;;;1.45;;
52838;SDS011;39219;53.678;9.856;2022-09-17T09:01:53;11.13;;;1.58;;
52838;SDS011;39219;53.678;9.856;2022-09-17T09:04:33;6.25;;;0.98;;
52838;SDS011;39219;53.678;9.856;2022-09-17T09:07:07;6.43;;;1.20;;
52838;SDS011;39219;53.678;9.856;2022-09-17T09:09:36;4.03;;;0.80;;
52838;SDS011;39219;53.678;9.856;2022-09-17T09:12:09;3.75;;;0.60;;
52838;SDS011;39219;53.678;9.856;2022-09-17T09:14:45;2.53;;;0.63;;
52838;SDS011;39219;53.678;9.856;2022-09-17T09:17:16;1.60;;;0.57;;
52838;SDS011;39219;53.678;9.856;2022-09-17T09:19:45;1.42;;;0.40;;
52838;SDS011;39219;53.678;9.856;2022-09-17T09:22:13;2.95;;;0.60;;
52838;SDS011;39219;53.678;9.856;2022-09-17T09:24:57;1.30;;;0.30;;
52838;SDS011;39219;53.678;9.856;2022-09-17T09:27:36;2.35;;;0.22;;
52838;SDS011;39219;53.678;9.856;2022-09-17T09:30:10;3.53;;;0.40;;
52838;SDS011;39219;53.678;9.856;2022-09-17T09:32:42;3.35;;;0.85;;
52838;SDS011;39219;53.678;9.856;2022-09-17T09:35:22;4.97;;;0.80;;
52838;SDS011;39219;53.678;9.856;2022-09-17T09:37:53;2.65;;;0.60;;
52838;SDS011;39219;53.678;9.856;2022-09-17T09:40:30;7.00;;;0.85;;
52838;SDS011;39219;53.678;9.856;2022-09-17T09:43:02;4.40;;;0.57;;
52838;SDS011;39219;53.678;9.856;2022-09-17T09:45:44;4.22;;;0.90;;
52838;SDS011;39219;53.678;9.856;2022-09-17T09:48:29;4.03;;;0.60;;
52838;SDS011;39219;53.678;9.856;2022-09-17T09:51:08;3.05;;;1.00;;
52838;SDS011;39219;53.678;9.856;2022-09-17T09:53:44;4.72;;;1.00;;
52838;SDS011;39219;53.678;9.856;2022-09-17T09:56:36;4.57;;;0.90;;
52838;SDS011;39219;53.678;9.856;2022-09-17T09:59:13;3.90;;;1.00;;
52838;SDS011;39219;53.678;9.856;2022-09-17T10:01:41;2.67;;;0.40;;
52838;SDS011;39219;53.678;9.856;2022-09-17T10:04:14;3.35;;;0.75;;
52838;SDS011;39219;53.678;9.856;2022-09-17T10:06:43;5.05;;;0.93;;
52838;SDS011;39219;53.678;9.856;2022-09-17T10:09:11;2.63;;;0.80;;
52838;SDS011;39219;53.678;9.856;2022-09-17T10:11:40;6.88;;;1.10;;
52838;SDS011;39219;53.678;9.856;2022-09-17T10:14:13;6.55;;;1.20;;
52838;SDS011;39219;53.678;9.856;2022-09-17T10:16:48;5.20;;;0.80;;
52838;SDS011;39219;53.678;9.856;2022-09-17T10:19:17;4.32;;;0.80;;
52838;SDS011;39219;53.678;9.856;2022-09-17T10:21:49;3.08;;;0.80;;
52838;SDS011;39219;53.678;9.856;2022-09-17T10:24:21;4.53;;;1.08;;
52838;SDS011;39219;53.678;9.856;2022-09-17T10:26:50;7.63;;;1.10;;
52838;SDS011;39219;53.678;9.856;2022-09-17T10:29:25;4.45;;;0.95;;
52838;SDS011;39219;53.678;9.856;2022-09-17T10:31:54;4.90;;;1.33;;
52838;SDS011;39219;53.678;9.856;2022-09-17T10:34:22;8.02;;;1.30;;
52838;SDS011;39219;53.678;9.856;2022-09-17T10:36:50;5.82;;;1.33;;
52838;SDS011;39219;53.678;9.856;2022-09-17T10:39:17;3.13;;;0.98;;
52838;SDS011;39219;53.678;9.856;2022-09-17T10:41:55;4.53;;;0.80;;
52838;SDS011;39219;53.678;9.856;2022-09-17T10:44:23;5.85;;;1.02;;
52838;SDS011;39219;53.678;9.856;2022-09-17T10:46:51;6.40;;;1.20;;
52838;SDS011;39219;53.678;9.856;2022-09-17T10:49:24;5.22;;;0.85;;
52838;SDS011;39219;53.678;9.856;2022-09-17T10:54:57;3.80;;;1.10;;
52838;SDS011;39219;53.678;9.856;2022-09-17T10:57:34;3.20;;;0.90;;
52838;SDS011;39219;53.678;9.856;2022-09-17T11:00:14;4.47;;;0.80;;
52838;SDS011;39219;53.678;9.856;2022-09-17T11:05:55;5.57;;;1.40;;
52838;SDS011;39219;53.678;9.856;2022-09-17T11:08:40;5.05;;;1.10;;
52838;SDS011;39219;53.678;9.856;2022-09-17T11:11:17;3.10;;;0.82;;
52838;SDS011;39219;53.678;9.856;2022-09-17T11:13:57;6.53;;;1.40;;
52838;SDS011;39219;53.678;9.856;2022-09-17T11:16:33;6.50;;;1.40;;
52838;SDS011;39219;53.678;9.856;2022-09-17T11:19:11;7.20;;;1.25;;
52838;SDS011;39219;53.678;9.856;2022-09-17T11:21:47;4.15;;;0.95;;
52838;SDS011;39219;53.678;9.856;2022-09-17T11:24:28;6.45;;;1.20;;
52838;SDS011;39219;53.678;9.856;2022-09-17T11:27:11;6.95;;;1.35;;
52838;SDS011;39219;53.678;9.856;2022-09-17T11:29:56;5.55;;;1.00;;
52838;SDS011;39219;53.678;9.856;2022-09-17T11:32:37;6.38;;;1.30;;
52838;SDS011;39219;53.678;9.856;2022-09-17T11:35:26;6.25;;;1.30;;
52838;SDS011;39219;53.678;9.856;2022-09-17T11:37:57;5.75;;;1.45;;
52838;SDS011;39219;53.678;9.856;2022-09-17T11:40:31;5.55;;;1.48;;
52838;SDS011;39219;53.678;9.856;2022-09-17T11:43:06;3.63;;;1.30;;
52838;SDS011;39219;53.678;9.856;2022-09-17T11:45:40;4.50;;;1.27;;
52838;SDS011;39219;53.678;9.856;2022-09-17T11:48:16;7.05;;;1.33;;
52838;SDS011;39219;53.678;9.856;2022-09-17T11:50:49;4.95;;;1.33;;
52838;SDS011;39219;53.678;9.856;2022-09-17T11:53:24;6.45;;;1.42;;
52838;SDS011;39219;53.678;9.856;2022-09-17T11:55:56;5.80;;;1.35;;
52838;SDS011;39219;53.678;9.856;2022-09-17T11:58:27;6.57;;;1.70;;
52838;SDS011;39219;53.678;9.856;2022-09-17T12:01:00;6.05;;;1.25;;
52838;SDS011;39219;53.678;9.856;2022-09-17T12:03:31;5.70;;;1.33;;
52838;SDS011;39219;53.678;9.856;2022-09-17T12:06:01;8.68;;;1.63;;
52838;SDS011;39219;53.678;9.856;2022-09-17T12:11:06;9.32;;;1.88;;
52838;SDS011;39219;53.678;9.856;2022-09-17T12:13:39;9.13;;;2.05;;
52838;SDS011;39219;53.678;9.856;2022-09-17T12:16:11;12.38;;;2.28;;
52838;SDS011;39219;53.678;9.856;2022-09-17T12:18:44;7.40;;;1.60;;
52838;SDS011;39219;53.678;9.856;2022-09-17T12:21:18;12.25;;;2.00;;
52838;SDS011;39219;53.678;9.856;2022-09-17T12:23:47;9.50;;;1.88;;
52838;SDS011;39219;53.678;9.856;2022-09-17T12:26:20;6.82;;;1.80;;
52838;SDS011;39219;53.678;9.856;2022-09-17T12:28:57;10.32;;;2.28;;
52838;SDS011;39219;53.678;9.856;2022-09-17T12:31:34;7.22;;;2.30;;
52838;SDS011;39219;53.678;9.856;2022-09-17T12:34:16;6.75;;;2.10;;
52838;SDS011;39219;53.678;9.856;2022-09-17T12:36:56;5.85;;;1.65;;
52838;SDS011;39219;53.678;9.856;2022-09-17T12:39:45;7.75;;;1.90;;
52838;SDS011;39219;53.678;9.856;2022-09-17T12:42:32;9.40;;;2.30;;
52838;SDS011;39219;53.678;9.856;2022-09-17T12:45:15;7.75;;;1.85;;
52838;SDS011;39219;53.678;9.856;2022-09-17T12:48:06;9.15;;;2.08;;
52838;SDS011;39219;53.678;9.856;2022-09-17T12:50:58;6.40;;;2.10;;
52838;SDS011;39219;53.678;9.856;2022-09-17T12:53:38;7.35;;;1.90;;
52838;SDS011;39219;53.678;9.856;2022-09-17T12:56:17;6.78;;;2.00;;
52838;SDS011;39219;53.678;9.856;2022-09-17T12:59:04;10.23;;;2.10;;
52838;SDS011;39219;53.678;9.856;2022-09-17T13:01:34;5.22;;;1.50;;
52838;SDS011;39219;53.678;9.856;2022-09-17T13:07:18;2.70;;;1.02;;
52838;SDS011;39219;53.678;9.856;2022-09-17T13:10:04;2.42;;;0.90;;
52838;SDS011;39219;53.678;9.856;2022-09-17T13:12:43;3.83;;;1.50;;
52838;SDS011;39219;53.678;9.856;2022-09-17T13:18:11;3.58;;;0.82;;
52838;SDS011;39219;53.678;9.856;2022-09-17T13:20:43;3.60;;;0.88;;
52838;SDS011;39219;53.678;9.856;2022-09-17T13:23:32;2.05;;;0.52;;
52838;SDS011;39219;53.678;9.856;2022-09-17T13:26:04;1.33;;;0.50;;
52838;SDS011;39219;53.678;9.856;2022-09-17T13:28:38;3.78;;;0.80;;
52838;SDS011;39219;53.678;9.856;2022-09-17T13:31:07;2.08;;;0.50;;
52838;SDS011;39219;53.678;9.856;2022-09-17T13:33:52;2.80;;;0.55;;
52838;SDS011;39219;53.678;9.856;2022-09-17T13:39:05;2.47;;;0.45;;
52838;SDS011;39219;53.678;9.856;2022-09-17T13:41:36;1.65;;;0.50;;
52838;SDS011;39219;53.678;9.856;2022-09-17T13:44:06;1.23;;;0.40;;
52838;SDS011;39219;53.678;9.856;2022-09-17T13:46:34;2.28;;;0.77;;
52838;SDS011;39219;53.678;9.856;2022-09-17T13:49:03;2.80;;;0.40;;
52838;SDS011;39219;53.678;9.856;2022-09-17T13:51:43;2.63;;;0.50;;
52838;SDS011;39219;53.678;9.856;2022-09-17T13:54:14;4.40;;;1.50;;
52838;SDS011;39219;53.678;9.856;2022-09-17T13:56:45;2.60;;;1.00;;
52838;SDS011;39219;53.678;9.856;2022-09-17T13:59:14;4.85;;;1.60;;
52838;SDS011;39219;53.678;9.856;2022-09-17T14:01:57;4.57;;;1.40;;
52838;SDS011;39219;53.678;9.856;2022-09-17T14:04:33;4.18;;;1.40;;
52838;SDS011;39219;53.678;9.856;2022-09-17T14:09:57;6.05;;;1.30;;
52838;SDS011;39219;53.678;9.856;2022-09-17T14:15:55;1.80;;;0.68;;
52838;SDS011;39219;53.678;9.856;2022-09-17T14:18:35;2.58;;;1.13;;
52838;SDS011;39219;53.678;9.856;2022-09-17T14:21:10;1.88;;;0.73;;
52838;SDS011;39219;53.678;9.856;2022-09-17T14:23:43;4.07;;;1.10;;
52838;SDS011;39219;53.678;9.856;2022-09-17T14:26:14;3.63;;;1.17;;
52838;SDS011;39219;53.678;9.856;2022-09-17T14:28:54;3.90;;;1.55;;
52838;SDS011;39219;53.678;9.856;2022-09-17T14:31:29;8.40;;;2.25;;
52838;SDS011;39219;53.678;9.856;2022-09-17T14:34:00;6.97;;;2.25;;
52838;SDS011;39219;53.678;9.856;2022-09-17T14:36:33;7.05;;;2.00;;
52838;SDS011;39219;53.678;9.856;2022-09-17T14:39:03;5.72;;;1.33;;
52838;SDS011;39219;53.678;9.856;2022-09-17T14:41:37;6.40;;;1.65;;
52838;SDS011;39219;53.678;9.856;2022-09-17T14:44:10;7.07;;;1.65;;
52838;SDS011;39219;53.678;9.856;2022-09-17T14:46:40;8.68;;;1.33;;
52838;SDS011;39219;53.678;9.856;2022-09-17T14:49:13;4.07;;;1.15;;
52838;SDS011;39219;53.678;9.856;2022-09-17T14:51:41;6.90;;;1.30;;
52838;SDS011;39219;53.678;9.856;2022-09-17T14:54:18;8.05;;;1.80;;
52838;SDS011;39219;53.678;9.856;2022-09-17T14:56:47;5.10;;;1.33;;
52838;SDS011;39219;53.678;9.856;2022-09-17T14:59:20;7.70;;;1.30;;
52838;SDS011;39219;53.678;9.856;2022-09-17T15:01:50;3.53;;;1.00;;
52838;SDS011;39219;53.678;9.856;2022-09-17T15:04:19;6.60;;;1.20;;
52838;SDS011;39219;53.678;9.856;2022-09-17T15:06:47;3.75;;;0.80;;
52838;SDS011;39219;53.678;9.856;2022-09-17T15:09:14;4.55;;;1.13;;
52838;SDS011;39219;53.678;9.856;2022-09-17T15:11:41;3.10;;;1.10;;
52838;SDS011;39219;53.678;9.856;2022-09-17T15:14:11;7.28;;;1.00;;
52838;SDS011;39219;53.678;9.856;2022-09-17T15:16:47;4.90;;;1.13;;
52838;SDS011;39219;53.678;9.856;2022-09-17T15:19:17;4.75;;;0.93;;
52838;SDS011;39219;53.678;9.856;2022-09-17T15:21:48;3.60;;;0.82;;
52838;SDS011;39219;53.678;9.856;2022-09-17T15:24:20;4.97;;;0.82;;
52838;SDS011;39219;53.678;9.856;2022-09-17T15:26:55;4.32;;;0.93;;
52838;SDS011;39219;53.678;9.856;2022-09-17T15:29:25;4.72;;;0.90;;
52838;SDS011;39219;53.678;9.856;2022-09-17T15:31:56;2.28;;;0.50;;
52838;SDS011;39219;53.678;9.856;2022-09-17T15:34:23;1.58;;;0.70;;